Terminal Aerodrome Forecast
Issued by NWS

Home | Current Version | Previous Version | Text Only | Print | Product List | Glossary Off
Versions: 1 2 3 4 5 6 7 8 9 10 11 12 13 14 15 16 17 18 19 20 21 22 23 24 25 26 27 28 29 30 31

000
FTUS43 KLOT 191400 AAA
TAFMDW
TAF AMD
KMDW 191412Z 1914/2012 33005KT P6SM FEW015 OVC025
     FM191600 33003KT P6SM BKN030
     FM200200 00000KT P6SM OVC025
     FM200800 21004KT P6SM OVC020=

USA.gov is the U.S. government's official web portal to all federal, state and local government web resources and services.